createdAt,value
2018-02-24T00:01:23.529Z,19.70
2018-02-24T00:03:51.092Z,19.02
2018-02-24T00:06:18.631Z,19.10
2018-02-24T00:08:46.194Z,18.70
2018-02-24T00:11:13.738Z,16.58
2018-02-24T00:13:41.294Z,18.55
2018-02-24T00:16:08.825Z,19.20
2018-02-24T00:18:37.163Z,16.83
2018-02-24T00:21:04.730Z,17.95
2018-02-24T00:23:32.298Z,18.85
2018-02-24T00:25:59.844Z,17.75
2018-02-24T00:28:27.419Z,16.98
2018-02-24T00:30:54.962Z,20.52
2018-02-24T00:33:22.522Z,20.00
2018-02-24T00:35:50.072Z,19.15
2018-02-24T00:38:17.651Z,22.02
2018-02-24T00:40:45.194Z,20.23
2018-02-24T00:43:12.763Z,17.70
2018-02-24T00:45:40.318Z,19.12
2018-02-24T00:48:07.882Z,18.95
2018-02-24T00:50:35.425Z,18.27
2018-02-24T00:53:03.039Z,19.12
2018-02-24T00:55:30.538Z,19.70
2018-02-24T00:57:58.099Z,19.67
2018-02-24T01:00:25.635Z,19.98
2018-02-24T01:02:53.205Z,19.10
2018-02-24T01:05:20.738Z,20.12
2018-02-24T01:07:49.079Z,18.58
2018-02-24T01:10:16.612Z,18.27
2018-02-24T01:12:44.180Z,20.60
2018-02-24T01:15:11.779Z,17.52
2018-02-24T01:17:39.350Z,19.23
2018-02-24T01:20:06.890Z,20.05
2018-02-24T01:22:34.459Z,18.55
2018-02-24T01:25:01.999Z,21.52
2018-02-24T01:27:29.559Z,16.83
2018-02-24T01:29:57.100Z,19.98
2018-02-24T01:32:24.659Z,18.37
2018-02-24T01:34:52.200Z,19.73
2018-02-24T01:37:19.760Z,20.95
2018-02-24T01:39:47.303Z,19.77
2018-02-24T01:42:15.638Z,19.12
2018-02-24T01:44:43.175Z,20.95
2018-02-24T01:47:10.726Z,18.80
2018-02-24T01:49:38.274Z,18.73
2018-02-24T01:52:05.926Z,20.70
2018-02-24T01:54:34.221Z,19.95
2018-02-24T01:57:01.783Z,19.58
2018-02-24T01:59:29.317Z,18.87
2018-02-24T02:01:57.648Z,19.37
2018-02-24T02:04:25.206Z,20.48
2018-02-24T02:06:52.751Z,19.23
2018-02-24T02:09:20.307Z,19.12
2018-02-24T02:11:47.838Z,18.75
2018-02-24T02:14:16.162Z,19.45
2018-02-24T02:16:43.690Z,19.10
2018-02-24T02:19:11.247Z,19.73
2018-02-24T02:21:38.777Z,20.80
2018-02-24T02:24:07.109Z,18.70
2018-02-24T02:26:34.648Z,17.70
2018-02-24T02:29:02.214Z,19.73
2018-02-24T02:31:29.746Z,21.25
2018-02-24T02:33:58.109Z,19.10
2018-02-24T02:36:25.627Z,20.92
2018-02-24T02:38:53.265Z,18.85
2018-02-24T02:41:20.809Z,19.65
2018-02-24T02:43:49.138Z,18.87
2018-02-24T02:46:16.846Z,16.90
2018-02-24T02:48:45.180Z,18.75
2018-02-24T02:51:12.732Z,19.45
2018-02-24T02:53:40.294Z,19.05
2018-02-24T02:56:07.831Z,17.52
2018-02-24T02:58:35.395Z,19.33
2018-02-24T03:01:02.938Z,19.15
2018-02-24T03:03:30.508Z,19.17
2018-02-24T03:05:58.043Z,18.77
2018-02-24T03:08:25.618Z,20.70
2018-02-24T03:10:53.154Z,17.87
2018-02-24T03:13:21.494Z,17.85
2018-02-24T03:15:49.026Z,17.40
2018-02-24T03:18:16.586Z,18.37
2018-02-24T03:20:44.127Z,19.73
2018-02-24T03:23:11.690Z,20.17
2018-02-24T03:25:39.229Z,18.20
2018-02-24T03:28:07.556Z,19.35
2018-02-24T03:30:35.092Z,16.75
2018-02-24T03:33:02.658Z,20.02
2018-02-24T03:35:30.194Z,17.77
2018-02-24T03:37:58.518Z,20.52
2018-02-24T03:40:26.060Z,15.18
2018-02-24T03:42:53.638Z,18.85
2018-02-24T03:45:21.175Z,15.50
2018-02-24T03:47:48.732Z,16.08
2018-02-24T03:50:16.266Z,18.98
2018-02-24T03:52:44.598Z,19.90
2018-02-24T03:55:12.139Z,19.87
2018-02-24T03:57:39.701Z,18.30
2018-02-24T04:00:07.247Z,18.35
2018-02-24T04:02:34.808Z,20.27
2018-02-24T04:05:02.346Z,17.12
2018-02-24T04:07:30.679Z,18.05
2018-02-24T04:09:58.222Z,17.70
2018-02-24T04:12:25.760Z,20.45
2018-02-24T04:14:53.323Z,19.00
2018-02-24T04:17:20.925Z,19.27
2018-02-24T04:19:48.494Z,19.30
2018-02-24T04:22:16.030Z,19.40
2018-02-24T04:24:43.591Z,20.90
2018-02-24T04:27:11.135Z,19.05
2018-02-24T04:29:38.695Z,18.62
2018-02-24T04:32:06.234Z,19.48
2018-02-24T04:34:33.798Z,17.62
2018-02-24T04:37:03.289Z,16.98
2018-02-24T04:39:31.625Z,19.67
2018-02-24T04:41:59.158Z,19.50
2018-02-24T04:44:26.721Z,17.27
2018-02-24T04:46:54.316Z,21.00
2018-02-24T04:49:21.894Z,16.48
2018-02-24T04:51:50.202Z,19.52
2018-02-24T04:54:17.763Z,18.17
2018-02-24T04:56:45.302Z,18.00
2018-02-24T04:59:13.624Z,19.60
2018-02-24T05:01:41.165Z,20.23
2018-02-24T05:04:08.726Z,18.15
2018-02-24T05:06:36.264Z,18.37
2018-02-24T05:09:03.845Z,18.77
2018-02-24T05:11:31.378Z,21.70
2018-02-24T05:13:59.710Z,19.70
2018-02-24T05:16:27.254Z,18.45
2018-02-24T05:18:54.818Z,18.45
2018-02-24T05:21:22.349Z,20.15
2018-02-24T05:23:49.918Z,18.80
2018-02-24T05:26:17.463Z,20.37
2018-02-24T05:28:45.022Z,18.73
2018-02-24T05:31:12.562Z,16.48
2018-02-24T05:33:40.891Z,19.80
2018-02-24T05:36:08.425Z,20.70
2018-02-24T05:38:35.990Z,20.58
2018-02-24T05:41:03.529Z,21.08
2018-02-24T05:43:31.863Z,21.30
2018-02-24T05:45:59.402Z,18.12
2018-02-24T05:48:26.969Z,20.80
2018-02-24T05:50:54.518Z,19.05
2018-02-24T05:53:22.091Z,20.33
2018-02-24T05:55:49.626Z,17.92
2018-02-24T05:58:17.166Z,19.17
2018-02-24T06:00:46.223Z,20.30
2018-02-24T06:03:13.754Z,22.30
2018-02-24T06:05:41.326Z,19.87
2018-02-24T06:08:08.858Z,19.40
2018-02-24T06:10:36.417Z,22.25
2018-02-24T06:13:03.978Z,18.75
2018-02-24T06:15:31.541Z,22.90
2018-02-24T06:17:59.079Z,19.75
2018-02-24T06:20:27.399Z,18.52
2018-02-24T06:22:54.930Z,20.42
2018-02-24T06:25:22.493Z,20.83
2018-02-24T06:27:50.039Z,17.90
2018-02-24T06:30:18.367Z,19.85
2018-02-24T06:32:45.894Z,21.48
2018-02-24T06:55:11.583Z,20.37
2018-02-24T06:57:39.119Z,21.02
2018-02-24T07:00:06.683Z,22.40
2018-02-24T07:02:34.230Z,20.08
2018-02-24T07:05:01.849Z,22.08
2018-02-24T07:07:29.386Z,21.27
2018-02-24T07:09:56.950Z,21.23
2018-02-24T07:12:25.212Z,19.58
2018-02-24T07:14:52.837Z,24.00
2018-02-24T07:17:20.376Z,18.55
2018-02-24T07:19:48.708Z,22.65
2018-02-24T07:22:17.010Z,21.00
2018-02-24T07:24:44.571Z,19.27
2018-02-24T07:27:12.116Z,19.92
2018-02-24T07:29:39.812Z,19.98
2018-02-24T07:32:07.350Z,21.65
2018-02-24T07:34:34.914Z,21.08
2018-02-24T07:37:02.446Z,20.75
2018-02-24T07:39:30.035Z,20.83
2018-02-24T07:41:57.570Z,23.30
2018-02-24T07:44:25.159Z,17.17
2018-02-24T07:46:52.775Z,21.12
2018-02-24T07:49:20.338Z,21.80
2018-02-24T07:51:47.878Z,21.83
2018-02-24T07:54:15.438Z,21.27
2018-02-24T07:56:43.054Z,20.17
2018-02-24T07:59:10.677Z,20.12
2018-02-24T08:01:38.219Z,19.98
2018-02-24T08:04:05.785Z,20.90
2018-02-24T08:06:33.331Z,21.70
2018-02-24T08:09:00.886Z,22.20
2018-02-24T08:11:29.230Z,21.45
2018-02-24T08:13:56.761Z,21.50
2018-02-24T08:16:24.343Z,21.20
2018-02-24T08:18:51.887Z,19.67
2018-02-24T08:21:19.446Z,19.35
2018-02-24T08:23:46.978Z,21.48
2018-02-24T08:26:14.544Z,20.23
2018-02-24T08:28:42.083Z,21.62
2018-02-24T08:31:10.416Z,22.42
2018-02-24T08:33:38.724Z,22.70
2018-02-24T08:36:07.053Z,20.30
2018-02-24T08:38:34.618Z,19.50
2018-02-24T08:41:02.582Z,21.33
2018-02-24T08:43:30.258Z,16.17
2018-02-24T08:45:57.838Z,21.05
2018-02-24T08:48:25.377Z,20.17
2018-02-24T08:50:53.230Z,20.62
2018-02-24T08:53:20.779Z,20.17
2018-02-24T08:55:48.347Z,23.17
2018-02-24T08:58:15.978Z,21.55
2018-02-24T09:00:43.575Z,18.10
2018-02-24T09:03:11.118Z,20.45
2018-02-24T09:05:38.686Z,18.65
2018-02-24T09:08:06.222Z,20.08
2018-02-24T09:10:33.787Z,21.23
2018-02-24T09:13:01.328Z,19.40
2018-02-24T09:15:29.654Z,18.15
2018-02-24T09:17:57.190Z,20.10
2018-02-24T09:20:24.749Z,20.95
2018-02-24T09:22:52.292Z,17.95
2018-02-24T09:25:19.903Z,19.02
2018-02-24T09:27:47.426Z,19.73
2018-02-24T09:30:14.978Z,19.20
2018-02-24T09:32:42.518Z,20.85
2018-02-24T09:35:10.902Z,18.92
2018-02-24T09:37:38.678Z,19.48
2018-02-24T09:40:06.290Z,19.20
2018-02-24T09:42:34.701Z,19.33
2018-02-24T09:45:02.327Z,19.02
2018-02-24T09:47:29.867Z,19.90
2018-02-24T09:49:57.439Z,19.00
2018-02-24T09:52:24.999Z,19.90
2018-02-24T09:54:52.567Z,21.23
2018-02-24T09:57:20.111Z,17.58
2018-02-24T09:59:47.938Z,16.25
2018-02-24T10:02:16.243Z,18.40
2018-02-24T10:04:43.812Z,17.02
2018-02-24T10:07:11.354Z,19.00
2018-02-24T10:09:39.168Z,18.27
2018-02-24T10:12:07.512Z,19.73
2018-02-24T10:14:35.096Z,17.85
2018-02-24T10:17:02.637Z,18.23
2018-02-24T10:19:30.178Z,18.73
2018-02-24T10:21:57.742Z,18.92
2018-02-24T10:24:25.294Z,18.92
2018-02-24T10:26:52.861Z,17.35
2018-02-24T10:29:20.409Z,18.58
2018-02-24T10:31:47.978Z,18.73
2018-02-24T10:34:15.514Z,17.90
2018-02-24T10:36:43.845Z,18.70
2018-02-24T10:39:11.378Z,18.17
2018-02-24T10:41:38.931Z,16.63
2018-02-24T10:44:06.464Z,17.37
2018-02-24T10:46:34.791Z,14.93
2018-02-24T10:49:16.192Z,16.63
2018-02-24T10:51:44.514Z,17.53
2018-02-24T10:54:12.811Z,17.92
2018-02-24T10:56:40.371Z,16.93
2018-02-24T10:59:07.910Z,16.40
2018-02-24T11:01:36.235Z,14.90
2018-02-24T11:04:03.777Z,16.73
2018-02-24T11:06:31.330Z,16.20
2018-02-24T11:08:58.865Z,17.12
2018-02-24T11:11:27.194Z,15.70
2018-02-24T11:13:54.725Z,16.40
2018-02-24T11:16:22.274Z,11.83
2018-02-24T11:18:50.564Z,14.50
2018-02-24T11:21:18.126Z,15.03
2018-02-24T11:23:45.651Z,15.07
2018-02-24T11:26:13.982Z,13.83
2018-02-24T11:28:41.516Z,15.80
2018-02-24T11:31:09.071Z,15.10
2018-02-24T11:33:36.610Z,15.07
2018-02-24T11:36:04.934Z,12.47
2018-02-24T11:38:32.466Z,15.17
2018-02-24T11:41:00.028Z,14.27
2018-02-24T11:43:27.592Z,14.77
2018-02-24T11:45:55.141Z,15.30
2018-02-24T11:48:23.431Z,15.37
2018-02-24T11:50:50.983Z,15.23
2018-02-24T11:53:18.518Z,15.30
2018-02-24T11:55:46.107Z,14.73
2018-02-24T11:58:13.639Z,13.93
2018-02-24T12:00:41.200Z,15.57
2018-02-24T12:03:09.503Z,15.13
2018-02-24T12:05:37.059Z,14.43
2018-02-24T12:08:04.598Z,15.30
2018-02-24T12:10:32.922Z,14.33
2018-02-24T12:13:00.445Z,14.83
2018-02-24T12:15:28.772Z,15.63
2018-02-24T12:17:56.307Z,11.87
2018-02-24T12:20:23.950Z,15.50
2018-02-24T12:22:51.486Z,13.73
2018-02-24T12:25:19.053Z,14.33
2018-02-24T12:27:47.356Z,14.43
2018-02-24T12:30:14.915Z,14.17
2018-02-24T12:32:42.442Z,13.07
2018-02-24T12:35:09.993Z,13.23
2018-02-24T12:37:43.213Z,16.27
2018-02-24T12:40:14.975Z,15.37
2018-02-24T12:42:52.722Z,14.33
2018-02-24T12:45:20.282Z,13.80
2018-02-24T12:47:47.811Z,13.17
2018-02-24T12:50:15.367Z,14.20
2018-02-24T12:52:42.894Z,13.30
2018-02-24T12:55:10.428Z,11.93
2018-02-24T12:57:37.982Z,13.53
2018-02-24T13:00:05.510Z,12.90
2018-02-24T13:02:33.062Z,12.53
2018-02-24T13:05:00.591Z,12.70
2018-02-24T13:07:28.154Z,13.70
2018-02-24T13:09:56.450Z,12.57
2018-02-24T13:12:24.070Z,13.57
2018-02-24T13:14:51.606Z,12.37
2018-02-24T13:17:19.168Z,14.07
2018-02-24T13:19:46.703Z,11.67
2018-02-24T13:22:14.272Z,13.23
2018-02-24T13:24:41.802Z,13.80
2018-02-24T13:27:10.132Z,10.80
2018-02-24T13:29:37.666Z,13.20
2018-02-24T13:32:05.255Z,13.13
2018-02-24T13:34:32.781Z,11.40
2018-02-24T13:37:00.334Z,13.63
2018-02-24T13:39:27.858Z,12.67
2018-02-24T13:41:55.414Z,12.63
2018-02-24T13:44:22.943Z,13.77
2018-02-24T13:46:50.507Z,12.27
2018-02-24T13:49:18.812Z,11.93
2018-02-24T13:51:46.366Z,14.67
2018-02-24T13:54:14.096Z,13.10
2018-02-24T13:56:41.697Z,12.07
2018-02-24T13:59:10.015Z,12.87
2018-02-24T14:01:37.592Z,11.20
2018-02-24T14:04:05.118Z,12.27
2018-02-24T14:06:33.463Z,13.37
2018-02-24T14:09:01.002Z,10.87
2018-02-24T14:11:28.786Z,12.60
2018-02-24T14:13:56.381Z,12.50
2018-02-24T14:16:24.959Z,10.93
2018-02-24T14:18:52.510Z,12.23
2018-02-24T14:21:20.835Z,10.17
2018-02-24T14:23:48.475Z,10.27
2018-02-24T14:26:16.037Z,10.63
2018-02-24T14:28:43.570Z,10.10
2018-02-24T14:31:11.910Z,10.83
2018-02-24T14:33:39.438Z,11.57
2018-02-24T14:36:06.998Z,9.43
2018-02-24T14:38:34.546Z,8.97
2018-02-24T14:41:02.870Z,9.80
2018-02-24T14:43:30.402Z,10.17
2018-02-24T14:45:57.959Z,10.97
2018-02-24T14:48:25.488Z,9.67
2018-02-24T14:50:53.845Z,9.10
2018-02-24T14:53:21.363Z,8.53
2018-02-24T14:55:48.911Z,8.13
2018-02-24T14:58:16.439Z,8.30
2018-02-24T15:00:44.771Z,7.00
2018-02-24T15:03:12.295Z,8.87
2018-02-24T15:05:40.585Z,7.70
2018-02-24T15:08:08.139Z,7.77
2018-02-24T15:10:35.729Z,6.80
2018-02-24T15:13:04.021Z,6.80
2018-02-24T15:15:31.545Z,6.70
2018-02-24T15:18:18.323Z,7.10
2018-02-24T15:20:46.633Z,5.40
2018-02-24T15:23:14.159Z,7.53
2018-02-24T15:25:42.451Z,5.07
2018-02-24T15:28:10.760Z,5.97
2018-02-24T15:30:38.290Z,6.70
2018-02-24T15:33:05.850Z,7.10
2018-02-24T15:35:33.378Z,7.20
2018-02-24T15:38:00.928Z,6.07
2018-02-24T15:40:28.451Z,7.13
2018-02-24T15:42:56.015Z,6.10
2018-02-24T15:45:23.538Z,6.80
2018-02-24T15:47:51.862Z,6.03
2018-02-24T15:50:19.409Z,5.87
2018-02-24T15:52:46.960Z,6.20
2018-02-24T15:55:14.487Z,6.80
2018-02-24T15:57:42.807Z,6.73
2018-02-24T16:00:10.336Z,6.50
2018-02-24T16:02:38.659Z,6.13
2018-02-24T16:05:06.199Z,6.50
2018-02-24T16:07:33.747Z,6.63
2018-02-24T16:10:01.342Z,7.03
2018-02-24T16:12:28.867Z,6.93
2018-02-24T16:14:56.396Z,8.00
2018-02-24T16:17:34.523Z,7.20
2018-02-24T16:20:02.060Z,7.30
2018-02-24T16:22:30.403Z,6.87
2018-02-24T16:24:57.955Z,6.60
2018-02-24T16:27:25.509Z,7.90
2018-02-24T16:29:53.033Z,7.23
2018-02-24T16:32:20.587Z,6.68
2018-02-24T16:34:48.886Z,8.00
2018-02-24T16:37:16.507Z,8.80
2018-02-24T16:39:44.031Z,8.50
2018-02-24T16:42:11.579Z,7.57
2018-02-24T16:44:39.098Z,7.83
2018-02-24T16:47:07.454Z,6.90
2018-02-24T16:49:34.985Z,7.70
2018-02-24T16:52:02.543Z,7.50
2018-02-24T16:54:30.074Z,7.67
2018-02-24T16:56:57.638Z,8.05
2018-02-24T16:59:25.296Z,7.80
2018-02-24T17:01:52.882Z,8.10
2018-02-24T17:04:20.414Z,9.47
2018-02-24T17:06:47.967Z,7.25
2018-02-24T17:09:16.279Z,8.10
2018-02-24T17:11:43.835Z,8.03
2018-02-24T17:14:11.386Z,8.43
2018-02-24T17:16:38.951Z,7.67
2018-02-24T17:19:06.490Z,7.70
2018-02-24T17:21:34.058Z,8.75
2018-02-24T17:24:01.586Z,9.03
2018-02-24T17:26:29.915Z,8.05
2018-02-24T17:28:57.454Z,8.38
2018-02-24T17:31:24.998Z,7.82
2018-02-24T17:33:53.318Z,9.38
2018-02-24T17:36:20.857Z,8.98
2018-02-24T17:38:48.418Z,7.45
2018-02-24T17:41:15.950Z,8.50
2018-02-24T17:43:44.323Z,8.50
2018-02-24T17:46:12.628Z,7.30
2018-02-24T17:48:40.186Z,6.32
2018-02-24T17:51:07.737Z,7.65
2018-02-24T17:53:35.345Z,7.50
2018-02-24T17:56:02.882Z,8.80
2018-02-24T17:58:30.438Z,7.80
2018-02-24T18:00:57.970Z,8.87
2018-02-24T18:03:25.550Z,8.32
2018-02-24T18:05:53.081Z,7.60
2018-02-24T18:08:21.411Z,7.82
2018-02-24T18:10:48.957Z,8.52
2018-02-24T18:13:16.535Z,7.20
2018-02-24T18:15:44.078Z,8.40
2018-02-24T18:18:11.634Z,8.05
2018-02-24T18:20:39.182Z,7.57
2018-02-24T18:23:06.747Z,7.70
2018-02-24T18:25:34.278Z,7.90
2018-02-24T18:28:02.615Z,7.93
2018-02-24T18:30:30.155Z,8.90
2018-02-24T18:32:57.722Z,7.10
2018-02-24T18:35:25.258Z,8.55
2018-02-24T18:37:52.823Z,8.65
2018-02-24T18:40:20.374Z,8.65
2018-02-24T18:42:47.940Z,9.20
2018-02-24T18:45:15.481Z,8.45
2018-02-24T18:47:43.810Z,10.88
2018-02-24T18:50:11.351Z,9.35
2018-02-24T18:52:38.923Z,10.60
2018-02-24T18:55:06.502Z,10.57
2018-02-24T18:57:34.051Z,8.98
2018-02-24T19:00:02.354Z,10.43
2018-02-24T19:02:29.910Z,9.40
2018-02-24T19:04:57.455Z,9.35
2018-02-24T19:07:26.523Z,11.38
2018-02-24T19:09:54.062Z,10.85
2018-02-24T19:12:21.631Z,9.77
2018-02-24T19:14:49.170Z,11.40
2018-02-24T19:17:17.497Z,9.68
2018-02-24T19:19:45.815Z,9.27
2018-02-24T19:22:14.146Z,10.77
2018-02-24T19:24:41.678Z,8.73
2018-02-24T19:27:09.242Z,10.55
2018-02-24T19:29:36.786Z,10.35
2018-02-24T19:32:04.350Z,10.60
2018-02-24T19:34:31.908Z,10.77
2018-02-24T19:36:59.493Z,12.73
2018-02-24T19:39:27.049Z,9.23
2018-02-24T19:41:54.603Z,9.15
2018-02-24T19:44:22.173Z,9.48
2018-02-24T19:46:49.717Z,7.40
2018-02-24T19:49:17.271Z,8.85
2018-02-24T19:51:44.811Z,8.23
2018-02-24T19:54:13.127Z,8.75
2018-02-24T19:56:40.665Z,7.93
2018-02-24T19:59:08.229Z,8.20
2018-02-24T20:01:35.761Z,8.27
2018-02-24T20:04:03.326Z,9.50
2018-02-24T20:06:31.627Z,8.48
2018-02-24T20:08:59.195Z,8.15
2018-02-24T20:11:26.731Z,9.65
2018-02-24T20:13:55.063Z,7.43
2018-02-24T20:16:22.598Z,8.77
2018-02-24T20:18:50.168Z,9.27
2018-02-24T20:21:17.707Z,9.50
2018-02-24T20:23:45.272Z,7.30
2018-02-24T20:26:12.811Z,7.57
2018-02-24T20:28:40.379Z,8.15
2018-02-24T20:31:07.914Z,7.25
2018-02-24T20:33:36.256Z,6.25
2018-02-24T20:36:03.793Z,8.88
2018-02-24T20:38:31.354Z,9.45
2018-02-24T20:40:58.887Z,7.72
2018-02-24T20:43:27.214Z,7.43
2018-02-24T20:45:54.755Z,8.95
2018-02-24T20:48:22.316Z,7.05
2018-02-24T20:50:49.857Z,7.75
2018-02-24T20:53:17.414Z,9.45
2018-02-24T20:55:44.959Z,7.05
2018-02-24T20:58:13.290Z,6.70
2018-02-24T21:00:40.827Z,8.15
2018-02-24T21:03:08.377Z,8.10
2018-02-24T21:05:36.679Z,8.30
2018-02-24T21:08:04.242Z,8.13
2018-02-24T21:10:31.778Z,8.10
2018-02-24T21:13:00.110Z,7.97
2018-02-24T21:15:27.653Z,7.68
2018-02-24T21:17:55.239Z,6.60
2018-02-24T21:20:23.547Z,8.93
2018-02-24T21:22:51.107Z,7.45
2018-02-24T21:25:19.411Z,7.07
2018-02-24T21:27:46.968Z,8.13
2018-02-24T21:30:14.510Z,6.47
2018-02-24T21:32:42.074Z,6.37
2018-02-24T21:35:09.606Z,8.73
2018-02-24T21:37:37.933Z,6.87
2018-02-24T21:40:05.466Z,6.03
2018-02-24T21:42:33.052Z,7.70
2018-02-24T21:45:00.583Z,5.90
2018-02-24T21:47:28.109Z,6.75
2018-02-24T21:49:56.432Z,8.25
2018-02-24T21:52:23.970Z,7.05
2018-02-24T21:54:51.530Z,7.78
2018-02-24T21:57:19.066Z,6.60
2018-02-24T21:59:47.386Z,6.43
2018-02-24T22:02:14.919Z,6.18
2018-02-24T22:04:43.247Z,7.30
2018-02-24T22:07:10.850Z,6.15
2018-02-24T22:09:39.174Z,6.35
2018-02-24T22:12:06.714Z,7.07
2018-02-24T22:14:34.267Z,6.12
2018-02-24T22:17:01.801Z,6.75
2018-02-24T22:19:30.126Z,5.37
2018-02-24T22:21:57.667Z,5.70
2018-02-24T22:24:25.229Z,5.97
2018-02-24T22:26:52.770Z,5.78
2018-02-24T22:29:21.104Z,4.82
2018-02-24T22:31:48.638Z,5.18
2018-02-24T22:34:16.204Z,6.10
2018-02-24T22:36:43.742Z,4.43
2018-02-24T22:39:11.303Z,5.07
2018-02-24T22:41:38.834Z,4.62
2018-02-24T22:44:07.164Z,4.70
2018-02-24T22:46:34.690Z,4.75
2018-02-24T22:49:02.251Z,5.15
2018-02-24T22:51:29.787Z,5.72
2018-02-24T22:53:57.347Z,4.82
2018-02-24T22:56:25.651Z,4.68
2018-02-24T22:58:53.202Z,4.50
2018-02-24T23:01:21.496Z,4.95
2018-02-24T23:03:49.052Z,4.72
2018-02-24T23:06:16.582Z,4.00
2018-02-24T23:08:44.908Z,4.80
2018-02-24T23:11:12.436Z,4.60
2018-02-24T23:13:39.989Z,4.65
2018-02-24T23:16:08.294Z,4.87
2018-02-24T23:18:35.842Z,4.65
2018-02-24T23:21:03.370Z,4.95
2018-02-24T23:23:30.930Z,4.82
2018-02-24T23:25:58.463Z,5.22
2018-02-24T23:28:26.018Z,4.43
2018-02-24T23:30:53.559Z,5.30
2018-02-24T23:33:21.122Z,4.97
2018-02-24T23:35:48.650Z,4.10
2018-02-24T23:38:16.975Z,4.87
2018-02-24T23:40:44.503Z,5.12
2018-02-24T23:43:12.054Z,4.82
2018-02-24T23:45:39.587Z,4.60
2018-02-24T23:48:07.909Z,4.75
2018-02-24T23:50:35.439Z,4.00
2018-02-24T23:53:03.736Z,4.43
2018-02-24T23:55:31.290Z,4.60
2018-02-24T23:57:58.818Z,4.40
